Startpagina
METAR-TAF:

METAR-TAF

Vliegvelden :

Madrid, Spanje

Aeropuerto Adolfo Suárez Madrid-Barajas

breedte: 40-27N, lengte: 003-33W, hoogte: 609 m

Actueel weer

Dit bericht is 19 minuten geleden gemaakt, om 06:00 UTC
Wind 5 kt uit het noorden
Temperatuur 0°C
Vochtigheid 93%
Druk 1025 hPa
Zicht 10 km of meer
geen wolken onder 1500 m en geen cumulonimbus

METAR: LEMD 180600Z 35005KT CAVOK 00/M01 Q1025 NOSIG

Tijdstip: 07:19 (06:19 UTC)

Verwachting

Dit bericht is 1 uur en het 19 minuten geleden gemaakt, om 05:00 UTC
Verwachting geldig van 18 om 06 UTC tot 19 om 12 UTC
Wind 5 kt uit variabele richting
Zicht 10 km of meer
geen wolken onder 1500 m en geen cumulonimbus
Kans 30% :
Tijdelijke
van 18 om 06 UTC tot 18 om 10 UTC
Zicht: 3000 m
Gebroken wolken op 700 ft
nevel

TAF: LEMD 180500Z 1806/1912 VRB05KT CAVOK TX13/1815Z TN00/1806Z PROB30 TEMPO 1806/1810 3000 BR BKN007

Waarnemingen en weersverwachtingen van meer dan 4000 vliegvelden (METAR en TAF).

De beschikbare stations zijn de gele en rode punten op de kaart.

Ga met uw muis naar het station om de naam te zien.

Klik dan om waarnemingen en weersverwachtingen te zien.

kaart wijzigen: klik op de groene knoppen met een zwart kruis om in te zoomen, op de groene knop met een streepje om uit te zoomen of op de groene pijlen voor aangrenzende kaarten.


METAR-TAF: